createdAt,value
2023-04-15T00:00:32.319Z,34.28
2023-04-15T00:03:36.540Z,60.88
2023-04-15T00:06:43.132Z,55.30
2023-04-15T00:09:46.902Z,54.78
2023-04-15T00:12:50.326Z,45.75
2023-04-15T00:15:54.105Z,47.25
2023-04-15T00:18:57.718Z,57.20
2023-04-15T00:22:02.170Z,77.20
2023-04-15T00:25:05.837Z,62.55
2023-04-15T00:28:09.452Z,50.42
2023-04-15T00:31:12.941Z,60.47
2023-04-15T00:34:16.811Z,54.78
2023-04-15T00:37:20.181Z,64.22
2023-04-15T00:40:25.395Z,44.80
2023-04-15T00:43:28.708Z,39.47
2023-04-15T00:46:32.724Z,31.80
2023-04-15T00:49:36.096Z,53.30
2023-04-15T00:52:40.625Z,44.42
2023-04-15T00:55:44.319Z,40.20
2023-04-15T00:58:49.831Z,46.88
2023-04-15T01:01:54.025Z,61.55
2023-04-15T01:04:57.978Z,52.75
2023-04-15T01:08:01.675Z,51.50
2023-04-15T01:11:05.508Z,53.88
2023-04-15T01:14:11.126Z,46.25
2023-04-15T01:17:15.287Z,78.63
2023-04-15T01:20:18.934Z,33.35
2023-04-15T01:23:25.692Z,77.20
2023-04-15T01:26:29.692Z,57.22
2023-04-15T01:29:37.783Z,52.63
2023-04-15T01:32:42.507Z,61.92
2023-04-15T01:35:46.529Z,49.65
2023-04-15T01:38:50.093Z,55.97
2023-04-15T01:41:53.738Z,40.45
2023-04-15T01:45:17.481Z,47.92
2023-04-15T01:48:21.024Z,32.33
2023-04-15T01:51:36.008Z,54.33
2023-04-15T01:54:39.537Z,49.05
2023-04-15T01:57:47.503Z,33.75
2023-04-15T02:00:54.420Z,42.15
2023-04-15T02:03:57.828Z,41.25
2023-04-15T02:07:02.430Z,32.63
2023-04-15T02:10:08.260Z,61.55
2023-04-15T02:13:12.743Z,49.88
2023-04-15T02:16:20.361Z,50.47
2023-04-15T02:19:23.897Z,43.25
2023-04-15T02:22:27.302Z,48.50
2023-04-15T02:25:30.755Z,51.50
2023-04-15T02:28:34.310Z,40.13
2023-04-15T02:31:41.034Z,51.88
2023-04-15T02:34:44.589Z,59.05
2023-04-15T02:37:48.398Z,46.50
2023-04-15T02:40:52.604Z,63.03
2023-04-15T02:44:06.631Z,53.40
2023-04-15T02:47:16.823Z,45.65
2023-04-15T02:50:21.386Z,53.75
2023-04-15T02:53:34.155Z,58.63
2023-04-15T02:56:53.282Z,48.78
2023-04-15T03:03:24.486Z,39.55
2023-04-15T03:06:28.608Z,29.30
2023-04-15T03:12:53.094Z,45.22
2023-04-15T03:15:58.503Z,36.10
2023-04-15T03:19:04.275Z,49.25
2023-04-15T03:22:13.524Z,29.95
2023-04-15T03:25:45.040Z,30.25
2023-04-15T03:28:48.646Z,36.83
2023-04-15T03:35:18.224Z,39.83
2023-04-15T03:38:23.827Z,17.65
2023-04-15T03:41:27.742Z,25.38
2023-04-15T03:44:36.177Z,18.65
2023-04-15T03:47:51.010Z,11.15
2023-04-15T03:50:55.441Z,30.15
2023-04-15T03:54:01.375Z,29.30
2023-04-15T03:57:16.629Z,13.18
2023-04-15T04:00:21.785Z,22.00
2023-04-15T04:03:25.517Z,28.98
2023-04-15T04:06:29.088Z,13.60
2023-04-15T04:09:32.583Z,14.90
2023-04-15T04:12:36.100Z,28.10
2023-04-15T04:15:39.764Z,35.92
2023-04-15T04:18:43.341Z,30.25
2023-04-15T04:21:46.900Z,13.93
2023-04-15T04:25:20.052Z,29.65
2023-04-15T04:28:23.855Z,21.23
2023-04-15T04:31:28.615Z,25.17
2023-04-15T04:34:33.853Z,34.75
2023-04-15T04:37:37.729Z,42.65
2023-04-15T04:40:42.155Z,30.88
2023-04-15T04:43:48.628Z,18.92
2023-04-15T04:47:23.145Z,21.63
2023-04-15T04:50:28.085Z,24.08
2023-04-15T04:53:31.900Z,21.35
2023-04-15T04:56:35.761Z,24.85
2023-04-15T04:59:39.315Z,24.88
2023-04-15T05:02:44.917Z,21.75
2023-04-15T05:05:50.112Z,37.22
2023-04-15T05:08:53.820Z,17.40
2023-04-15T05:11:57.448Z,12.68
2023-04-15T05:15:01.031Z,29.85
2023-04-15T05:18:04.466Z,10.15
2023-04-15T05:21:08.608Z,11.75
2023-04-15T05:24:14.543Z,11.60
2023-04-15T05:27:18.119Z,9.15
2023-04-15T05:30:21.931Z,20.00
2023-04-15T05:33:27.130Z,21.67
2023-04-15T05:36:30.989Z,22.83
2023-04-15T05:39:35.768Z,13.68
2023-04-15T05:42:39.413Z,19.70
2023-04-15T05:45:43.130Z,15.77
2023-04-15T05:48:46.829Z,7.20
2023-04-15T05:51:50.441Z,4.07
2023-04-15T05:54:53.983Z,11.65
2023-04-15T05:57:58.033Z,29.35
2023-04-15T06:01:01.836Z,32.70
2023-04-15T06:07:22.703Z,30.95
2023-04-15T06:10:26.439Z,16.67
2023-04-15T06:13:33.247Z,23.00
2023-04-15T06:16:38.572Z,14.88
2023-04-15T06:19:42.019Z,8.07
2023-04-15T06:22:45.420Z,13.90
2023-04-15T06:25:48.982Z,10.10
2023-04-15T06:28:52.365Z,27.58
2023-04-15T06:31:57.123Z,28.08
2023-04-15T06:35:00.554Z,24.92
2023-04-15T06:38:06.275Z,4.97
2023-04-15T06:41:09.826Z,15.20
2023-04-15T06:44:13.532Z,4.88
2023-04-15T06:47:18.681Z,2.67
2023-04-15T06:50:23.989Z,15.05
2023-04-15T06:53:30.668Z,6.47
2023-04-15T06:56:34.824Z,6.63
2023-04-15T06:59:38.119Z,7.68
2023-04-15T07:02:41.828Z,31.52
2023-04-15T07:05:45.613Z,27.77
2023-04-15T07:08:49.529Z,6.13
2023-04-15T07:11:53.467Z,5.25
2023-04-15T07:15:01.555Z,1.95
2023-04-15T07:18:05.061Z,28.80
2023-04-15T07:21:09.986Z,9.13
2023-04-15T07:24:13.375Z,12.82
2023-04-15T07:27:17.177Z,4.63
2023-04-15T07:30:21.349Z,8.68
2023-04-15T07:33:24.935Z,14.40
2023-04-15T07:36:30.141Z,20.83
2023-04-15T07:39:33.543Z,27.17
2023-04-15T07:42:38.963Z,21.20
2023-04-15T07:45:43.526Z,3.13
2023-04-15T07:48:47.264Z,13.32
2023-04-15T07:51:51.236Z,13.63
2023-04-15T07:54:56.637Z,3.55
2023-04-15T07:58:00.010Z,13.57
2023-04-15T08:01:06.034Z,26.58
2023-04-15T08:04:09.984Z,5.88
2023-04-15T08:07:13.533Z,20.30
2023-04-15T08:10:16.986Z,14.40
2023-04-15T08:13:20.519Z,5.80
2023-04-15T08:16:26.072Z,9.80
2023-04-15T08:19:31.141Z,30.80
2023-04-15T08:22:35.177Z,20.42
2023-04-15T08:25:38.466Z,15.68
2023-04-15T08:28:45.700Z,17.73
2023-04-15T08:31:49.184Z,33.85
2023-04-15T08:34:52.997Z,33.85
2023-04-15T08:37:56.319Z,13.10
2023-04-15T08:41:03.793Z,42.80
2023-04-15T08:44:08.061Z,25.67
2023-04-15T08:47:17.378Z,12.38
2023-04-15T08:50:22.690Z,12.50
2023-04-15T08:53:27.411Z,24.35
2023-04-15T08:56:46.477Z,12.63
2023-04-15T08:59:53.732Z,11.30
2023-04-15T09:02:58.180Z,13.80
2023-04-15T09:06:02.396Z,28.10
2023-04-15T09:12:47.028Z,8.60
2023-04-15T09:15:51.404Z,13.68
2023-04-15T09:18:55.111Z,13.55
2023-04-15T09:22:00.692Z,7.80
2023-04-15T09:25:06.478Z,23.77
2023-04-15T09:28:10.212Z,7.97
2023-04-15T09:31:13.938Z,23.35
2023-04-15T09:34:17.450Z,8.60
2023-04-15T09:37:37.005Z,12.07
2023-04-15T09:40:45.648Z,28.70
2023-04-15T09:43:49.153Z,15.18
2023-04-15T09:46:53.116Z,10.20
2023-04-15T09:49:58.459Z,7.78
2023-04-15T09:53:05.159Z,21.67
2023-04-15T09:56:11.174Z,7.30
2023-04-15T09:59:14.656Z,11.13
2023-04-15T10:02:21.689Z,10.95
2023-04-15T10:05:26.493Z,10.38
2023-04-15T10:08:32.381Z,25.02
2023-04-15T10:11:36.691Z,16.52
2023-04-15T10:14:41.618Z,8.15
2023-04-15T10:17:46.265Z,15.52
2023-04-15T10:20:50.575Z,17.08
2023-04-15T10:23:54.597Z,13.60
2023-04-15T10:26:59.836Z,34.17
2023-04-15T10:30:06.545Z,9.60
2023-04-15T10:33:11.319Z,8.85
2023-04-15T10:36:16.195Z,7.40
2023-04-15T10:39:34.985Z,8.38
2023-04-15T10:42:38.568Z,45.08
2023-04-15T10:45:46.613Z,9.43
2023-04-15T10:48:54.751Z,12.02
2023-04-15T10:52:02.180Z,20.30
2023-04-15T10:55:18.614Z,16.42
2023-04-15T10:58:25.815Z,17.05
2023-04-15T11:05:00.813Z,11.40
2023-04-15T11:08:05.363Z,12.52
2023-04-15T11:11:10.992Z,16.45
2023-04-15T11:14:17.798Z,14.55
2023-04-15T11:17:30.805Z,21.85
2023-04-15T11:24:03.829Z,21.23
2023-04-15T11:27:07.940Z,16.15
2023-04-15T11:30:24.771Z,12.05
2023-04-15T11:33:28.247Z,7.65
2023-04-15T11:36:33.352Z,9.45
2023-04-15T11:39:38.622Z,13.00
2023-04-15T11:42:49.683Z,15.23
2023-04-15T11:45:58.141Z,17.77
2023-04-15T11:49:04.566Z,11.20
2023-04-15T11:52:14.392Z,11.45
2023-04-15T11:58:40.682Z,21.08
2023-04-15T12:01:44.798Z,19.20
2023-04-15T12:04:48.390Z,21.52
2023-04-15T12:08:01.623Z,34.42
2023-04-15T12:11:05.134Z,30.33
2023-04-15T12:14:22.022Z,20.17
2023-04-15T12:17:25.969Z,20.75
2023-04-15T12:20:32.324Z,24.15
2023-04-15T12:23:38.874Z,21.02
2023-04-15T12:26:51.219Z,14.77
2023-04-15T12:30:08.756Z,21.98
2023-04-15T12:33:12.755Z,15.38
2023-04-15T12:36:16.443Z,25.80
2023-04-15T12:39:22.979Z,12.38
2023-04-15T12:42:26.243Z,18.10
2023-04-15T12:45:30.083Z,14.65
2023-04-15T12:48:34.154Z,29.15
2023-04-15T12:51:37.737Z,21.48
2023-04-15T12:54:41.234Z,16.23
2023-04-15T12:57:44.572Z,12.60
2023-04-15T13:00:48.098Z,17.92
2023-04-15T13:03:51.858Z,14.65
2023-04-15T13:06:55.141Z,21.70
2023-04-15T13:09:58.551Z,12.02
2023-04-15T13:13:02.616Z,9.90
2023-04-15T13:16:06.685Z,8.70
2023-04-15T13:19:34.355Z,8.05
2023-04-15T13:22:41.243Z,12.02
2023-04-15T13:25:54.987Z,6.95
2023-04-15T13:32:19.281Z,6.47
2023-04-15T13:35:24.663Z,18.95
2023-04-15T13:38:30.175Z,7.45
2023-04-15T13:41:33.735Z,13.23
2023-04-15T13:44:37.045Z,7.47
2023-04-15T13:47:40.573Z,8.95
2023-04-15T13:50:46.060Z,5.68
2023-04-15T13:53:49.417Z,7.35
2023-04-15T13:56:52.905Z,6.70
2023-04-15T13:59:56.415Z,9.10
2023-04-15T14:06:16.552Z,7.03
2023-04-15T14:09:43.406Z,7.30
2023-04-15T14:12:46.785Z,6.22
2023-04-15T14:15:50.135Z,4.88
2023-04-15T14:18:53.728Z,7.13
2023-04-15T14:21:57.082Z,4.95
2023-04-15T14:25:00.974Z,9.88
2023-04-15T14:28:04.899Z,12.40
2023-04-15T14:31:08.275Z,9.90
2023-04-15T14:34:12.635Z,5.15
2023-04-15T14:37:16.024Z,4.88
2023-04-15T14:40:19.768Z,5.35
2023-04-15T14:43:23.176Z,6.85
2023-04-15T14:46:27.205Z,5.32
2023-04-15T14:49:31.323Z,5.13
2023-04-15T14:52:39.374Z,5.03
2023-04-15T14:55:42.851Z,7.65
2023-04-15T14:58:46.458Z,2.72
2023-04-15T15:01:49.894Z,4.70
2023-04-15T15:04:53.447Z,2.72
2023-04-15T15:07:56.880Z,103.78
2023-04-15T15:11:00.288Z,6.93
2023-04-15T15:14:03.690Z,7.07
2023-04-15T15:17:07.332Z,3.95
2023-04-15T15:20:11.282Z,4.15
2023-04-15T15:23:16.929Z,3.30
2023-04-15T15:26:20.299Z,4.57
2023-04-15T15:29:24.233Z,4.95
2023-04-15T15:32:27.711Z,9.18
2023-04-15T15:35:31.243Z,2.10
2023-04-15T15:38:34.760Z,3.47
2023-04-15T15:41:38.374Z,8.30
2023-04-15T15:44:41.973Z,4.70
2023-04-15T15:47:45.398Z,2.67
2023-04-15T15:50:48.994Z,3.42
2023-04-15T15:53:52.459Z,4.80
2023-04-15T15:56:56.071Z,7.80
2023-04-15T16:00:10.262Z,2.40
2023-04-15T16:03:16.957Z,4.78
2023-04-15T16:06:20.510Z,3.92
2023-04-15T16:09:23.920Z,7.32
2023-04-15T16:12:27.748Z,6.15
2023-04-15T16:15:31.326Z,8.27
2023-04-15T16:18:35.375Z,3.60
2023-04-15T16:21:38.926Z,5.57
2023-04-15T16:24:42.471Z,2.92
2023-04-15T16:27:57.771Z,4.20
2023-04-15T16:31:06.818Z,19.27
2023-04-15T16:34:10.482Z,4.35
2023-04-15T16:37:14.056Z,3.33
2023-04-15T16:40:17.670Z,2.42
2023-04-15T16:43:21.351Z,3.92
2023-04-15T16:46:24.816Z,4.78
2023-04-15T16:49:28.406Z,1.90
2023-04-15T16:52:32.507Z,5.22
2023-04-15T16:55:36.045Z,6.57
2023-04-15T16:58:39.481Z,3.33
2023-04-15T17:01:43.242Z,4.35
2023-04-15T17:04:46.759Z,3.95
2023-04-15T17:07:50.192Z,2.85
2023-04-15T17:10:53.641Z,26.55
2023-04-15T17:13:57.195Z,6.20
2023-04-15T17:17:01.020Z,7.40
2023-04-15T17:20:05.003Z,3.42
2023-04-15T17:23:08.565Z,6.75
2023-04-15T17:26:12.017Z,5.40
2023-04-15T17:29:15.472Z,5.60
2023-04-15T17:32:18.987Z,8.73
2023-04-15T17:35:23.871Z,4.60
2023-04-15T17:38:27.531Z,4.05
2023-04-15T17:41:31.068Z,3.05
2023-04-15T17:44:34.471Z,7.78
2023-04-15T17:47:38.100Z,8.02
2023-04-15T17:50:41.781Z,7.05
2023-04-15T17:53:45.282Z,2.47
2023-04-15T17:56:49.871Z,3.53
2023-04-15T17:59:53.378Z,4.45
2023-04-15T18:02:56.993Z,2.33
2023-04-15T18:06:02.020Z,6.55
2023-04-15T18:09:05.824Z,3.97
2023-04-15T18:12:09.748Z,4.45
2023-04-15T18:15:15.329Z,6.80
2023-04-15T18:18:18.860Z,8.45
2023-04-15T18:21:22.732Z,4.10
2023-04-15T18:24:26.222Z,4.78
2023-04-15T18:27:29.685Z,9.00
2023-04-15T18:30:33.210Z,4.00
2023-04-15T18:33:36.825Z,4.50
2023-04-15T18:36:40.378Z,5.18
2023-04-15T18:39:44.857Z,9.98
2023-04-15T18:42:48.333Z,2.33
2023-04-15T18:45:53.760Z,4.28
2023-04-15T18:48:57.199Z,6.18
2023-04-15T18:52:00.910Z,4.95
2023-04-15T18:55:04.787Z,4.88
2023-04-15T18:58:09.359Z,3.50
2023-04-15T19:01:12.857Z,2.28
2023-04-15T19:04:16.361Z,6.13
2023-04-15T19:07:19.834Z,2.92
2023-04-15T19:10:23.973Z,5.35
2023-04-15T19:13:27.349Z,3.55
2023-04-15T19:16:30.859Z,8.45
2023-04-15T19:19:34.369Z,4.75
2023-04-15T19:22:38.152Z,4.07
2023-04-15T19:25:41.529Z,2.40
2023-04-15T19:28:45.052Z,4.43
2023-04-15T19:31:48.580Z,3.35
2023-04-15T19:34:52.100Z,4.68
2023-04-15T19:37:55.761Z,3.60
2023-04-15T19:40:59.978Z,3.25
2023-04-15T19:44:05.220Z,6.55
2023-04-15T19:47:08.650Z,3.25
2023-04-15T19:50:12.703Z,4.53
2023-04-15T19:53:16.348Z,2.38
2023-04-15T19:56:19.796Z,5.88
2023-04-15T19:59:23.275Z,4.75
2023-04-15T20:02:26.867Z,1.88
2023-04-15T20:05:30.462Z,3.50
2023-04-15T20:08:33.920Z,4.00
2023-04-15T20:12:09.530Z,3.75
2023-04-15T20:15:00.735Z,6.57
2023-04-15T20:18:04.219Z,5.15
2023-04-15T20:21:07.659Z,2.25
2023-04-15T20:24:11.672Z,2.40
2023-04-15T20:27:17.874Z,4.78
2023-04-15T20:30:21.506Z,5.70
2023-04-15T20:33:26.501Z,3.92
2023-04-15T20:36:29.887Z,5.05
2023-04-15T20:39:33.291Z,3.85
2023-04-15T20:42:36.895Z,3.72
2023-04-15T20:45:40.608Z,3.10
2023-04-15T20:48:43.989Z,2.30
2023-04-15T20:51:47.467Z,1.85
2023-04-15T20:54:51.643Z,2.97
2023-04-15T20:57:55.672Z,4.50
2023-04-15T21:00:59.531Z,3.13
2023-04-15T21:04:03.048Z,5.82
2023-04-15T21:07:06.580Z,2.55
2023-04-15T21:10:10.317Z,3.88
2023-04-15T21:13:16.097Z,2.30
2023-04-15T21:16:19.601Z,5.47
2023-04-15T21:19:22.987Z,3.83
2023-04-15T21:22:27.013Z,4.28
2023-04-15T21:25:30.429Z,5.55
2023-04-15T21:28:33.995Z,6.22
2023-04-15T21:31:37.509Z,7.07
2023-04-15T21:34:41.066Z,4.00
2023-04-15T21:37:44.444Z,5.57
2023-04-15T21:40:50.227Z,6.68
2023-04-15T21:43:54.721Z,10.20
2023-04-15T21:46:58.178Z,6.60
2023-04-15T21:50:01.725Z,5.78
2023-04-15T21:53:08.165Z,2.97
2023-04-15T21:56:11.956Z,7.22
2023-04-15T21:59:15.996Z,5.95
2023-04-15T22:02:19.537Z,10.15
2023-04-15T22:05:23.080Z,7.35
2023-04-15T22:08:26.667Z,4.85
2023-04-15T22:11:31.605Z,11.38
2023-04-15T22:14:35.008Z,8.80
2023-04-15T22:17:38.651Z,6.78
2023-04-15T22:20:42.232Z,5.63
2023-04-15T22:23:49.590Z,5.07
2023-04-15T22:29:56.431Z,4.53
2023-04-15T22:32:59.814Z,13.30
2023-04-15T22:36:03.167Z,6.72
2023-04-15T22:39:06.838Z,8.32
2023-04-15T22:42:10.382Z,6.90
2023-04-15T22:45:14.762Z,6.15
2023-04-15T22:48:19.108Z,9.68
2023-04-15T22:51:23.676Z,12.75
2023-04-15T22:54:27.080Z,13.93
2023-04-15T22:57:30.588Z,6.82
2023-04-15T23:00:33.957Z,4.80
2023-04-15T23:03:38.988Z,9.18
2023-04-15T23:07:00.651Z,6.68
2023-04-15T23:10:04.080Z,10.75
2023-04-15T23:13:07.784Z,9.52
2023-04-15T23:16:11.320Z,6.97
2023-04-15T23:19:14.853Z,7.93
2023-04-15T23:22:19.307Z,8.15
2023-04-15T23:25:23.461Z,7.15
2023-04-15T23:28:26.899Z,7.13
2023-04-15T23:31:30.381Z,3.55
2023-04-15T23:34:33.740Z,11.13
2023-04-15T23:37:37.128Z,5.07
2023-04-15T23:40:40.631Z,3.00
2023-04-15T23:43:44.122Z,9.95
2023-04-15T23:46:47.616Z,7.30
2023-04-15T23:49:51.088Z,8.52
2023-04-15T23:52:54.651Z,5.45
2023-04-15T23:55:58.089Z,6.85
2023-04-15T23:59:01.600Z,18.70
